createdAt,value
2018-11-01T07:19:25.193Z,31.03
2018-11-01T07:59:48.285Z,32.50
2018-11-01T10:20:01.306Z,31.00
2018-11-01T15:26:28.602Z,28.50
2018-11-01T15:29:02.215Z,28.50
2018-11-01T15:31:35.661Z,28.47
2018-11-01T15:34:09.588Z,28.40
2018-11-01T15:36:43.152Z,28.50
2018-11-01T15:39:16.664Z,29.00
2018-11-01T15:41:50.165Z,30.03
2018-11-01T15:44:23.817Z,29.60
2018-11-01T15:46:57.264Z,30.87
2018-11-01T15:49:30.728Z,30.27
2018-11-01T15:52:04.180Z,30.27
2018-11-01T15:54:37.660Z,30.90
2018-11-01T15:57:11.187Z,30.23
2018-11-01T15:59:44.718Z,30.13
2018-11-01T16:02:18.587Z,30.00
2018-11-01T16:04:52.325Z,29.27
2018-11-01T16:07:26.344Z,28.87
2018-11-01T16:09:59.961Z,29.30
2018-11-01T16:12:33.248Z,28.83
2018-11-01T16:15:11.331Z,28.80
2018-11-01T16:17:44.736Z,28.87
2018-11-01T16:20:18.467Z,29.97
2018-11-01T16:22:51.782Z,50.90
2018-11-01T16:25:25.228Z,103.13
2018-11-01T16:27:58.697Z,102.50
2018-11-01T16:30:32.129Z,102.47
2018-11-01T16:33:05.713Z,119.57
2018-11-01T16:35:39.144Z,99.40
2018-11-01T16:38:12.643Z,111.33
2018-11-01T16:40:46.085Z,137.53
2018-11-01T16:43:19.660Z,103.87
2018-11-01T16:45:53.168Z,84.60
2018-11-01T16:48:26.604Z,87.17
2018-11-01T16:51:00.129Z,88.57
2018-11-01T16:53:33.598Z,59.23
2018-11-01T16:56:07.016Z,34.17
2018-11-01T16:58:40.476Z,32.77
2018-11-01T17:01:14.131Z,30.93
2018-11-01T17:03:47.565Z,30.40
2018-11-01T17:06:21.155Z,31.40
2018-11-01T17:08:54.601Z,30.90
2018-11-01T17:11:28.107Z,30.37
2018-11-01T17:14:01.533Z,31.53
2018-11-01T17:16:35.449Z,30.87
2018-11-01T17:19:09.224Z,31.80
2018-11-01T17:21:42.631Z,32.53
2018-11-01T17:24:16.131Z,32.43
2018-11-01T17:26:49.540Z,31.80
2018-11-01T17:29:23.884Z,31.80
2018-11-01T17:31:57.302Z,31.30
2018-11-01T17:34:30.865Z,31.03
